createdAt,value
2023-03-23T00:02:00.379Z,100131.06
2023-03-23T00:04:33.063Z,100122.88
2023-03-23T00:07:04.234Z,100120.16
2023-03-23T00:09:42.299Z,100114.47
2023-03-23T00:12:16.694Z,100103.53
2023-03-23T00:14:46.735Z,100111.47
2023-03-23T00:17:20.769Z,100109.06
2023-03-23T00:19:51.247Z,100117.25
2023-03-23T00:22:22.161Z,100112.59
2023-03-23T00:24:55.420Z,100103.28
2023-03-23T00:27:25.696Z,100097.47
2023-03-23T00:29:56.614Z,100100.56
2023-03-23T00:32:29.808Z,100100.75
2023-03-23T00:35:01.653Z,100096.06
2023-03-23T00:37:31.578Z,100103.91
2023-03-23T00:40:10.090Z,100111.72
2023-03-23T00:42:40.468Z,100100.81
2023-03-23T00:45:13.015Z,100105.47
2023-03-23T00:47:42.880Z,100107.78
2023-03-23T00:50:14.255Z,100095.28
2023-03-23T00:52:44.236Z,100095.97
2023-03-23T00:55:16.663Z,100091.25
2023-03-23T00:57:46.676Z,100086.03
2023-03-23T01:00:18.619Z,100086.41
2023-03-23T01:02:48.630Z,100084.03
2023-03-23T01:05:18.725Z,100089.00
2023-03-23T01:07:49.437Z,100092.88
2023-03-23T01:10:22.254Z,100095.63
2023-03-23T01:12:52.140Z,100101.84
2023-03-23T01:15:23.316Z,100101.06
2023-03-23T01:17:53.187Z,100094.41
2023-03-23T01:20:23.336Z,100094.03
2023-03-23T01:22:54.094Z,100079.63
2023-03-23T01:25:26.508Z,100077.25
2023-03-23T01:27:56.481Z,100065.44
2023-03-23T01:30:27.543Z,100045.69
2023-03-23T01:32:58.390Z,100038.63
2023-03-23T01:35:28.285Z,100038.63
2023-03-23T01:37:58.825Z,100037.50
2023-03-23T01:40:31.514Z,100036.34
2023-03-23T01:43:01.393Z,100032.38
2023-03-23T01:45:35.902Z,100030.00
2023-03-23T01:48:10.908Z,100018.25
2023-03-23T01:50:47.940Z,100012.06
2023-03-23T01:53:18.229Z,100022.97
2023-03-23T01:55:53.465Z,100031.59
2023-03-23T01:58:28.271Z,100014.44
2023-03-23T02:01:01.895Z,100024.56
2023-03-23T02:03:33.089Z,100025.69
2023-03-23T02:06:03.706Z,100042.13
2023-03-23T02:08:36.589Z,100017.59
2023-03-23T02:11:22.062Z,100019.53
2023-03-23T02:13:53.411Z,100043.38
2023-03-23T02:16:33.014Z,100031.59
2023-03-23T02:19:17.244Z,100037.94
2023-03-23T02:22:21.128Z,100008.19
2023-03-23T02:25:02.893Z,100001.16
2023-03-23T02:28:10.454Z,100003.34
2023-03-23T02:30:57.059Z,100017.78
2023-03-23T02:33:42.549Z,100008.72
2023-03-23T02:36:23.302Z,100012.78
2023-03-23T02:39:02.636Z,99996.06
2023-03-23T02:41:38.236Z,99983.31
2023-03-23T02:44:09.243Z,99972.06
2023-03-23T02:46:40.011Z,99982.97
2023-03-23T02:49:16.700Z,99981.38
2023-03-23T02:51:49.837Z,99995.53
2023-03-23T02:54:23.585Z,99999.03
2023-03-23T02:56:56.011Z,99986.97
2023-03-23T02:59:25.886Z,99996.78
2023-03-23T03:02:06.626Z,99980.41
2023-03-23T03:04:43.425Z,99987.34
2023-03-23T03:07:41.529Z,99991.84
2023-03-23T03:10:17.552Z,99997.03
2023-03-23T03:12:55.068Z,99992.00
2023-03-23T03:15:31.862Z,99993.59
2023-03-23T03:18:09.776Z,99993.69
2023-03-23T03:20:48.085Z,99995.97
2023-03-23T03:23:20.441Z,99985.88
2023-03-23T03:25:51.231Z,99974.25
2023-03-23T03:28:23.592Z,99973.09
2023-03-23T03:30:57.893Z,99975.38
2023-03-23T03:33:28.956Z,99965.97
2023-03-23T03:36:04.863Z,99979.09
2023-03-23T03:38:45.483Z,99977.78
2023-03-23T03:41:15.915Z,99971.00
2023-03-23T03:43:45.752Z,99978.47
2023-03-23T03:46:15.695Z,99969.16
2023-03-23T03:48:45.720Z,99964.84
2023-03-23T03:51:18.778Z,99960.53
2023-03-23T03:53:48.988Z,99976.09
2023-03-23T03:56:18.847Z,99968.72
2023-03-23T03:58:49.546Z,99972.94
2023-03-23T04:01:27.613Z,99975.25
2023-03-23T04:03:57.670Z,99981.91
2023-03-23T04:06:30.680Z,99971.72
2023-03-23T04:09:08.344Z,99977.19
2023-03-23T04:11:38.982Z,99969.44
2023-03-23T04:14:09.151Z,99972.16
2023-03-23T04:16:39.378Z,99972.84
2023-03-23T04:19:11.328Z,99982.63
2023-03-23T04:21:44.746Z,99977.88
2023-03-23T04:24:23.415Z,99972.84
2023-03-23T04:27:05.186Z,99987.63
2023-03-23T04:29:35.149Z,99992.38
2023-03-23T04:32:04.994Z,99987.72
2023-03-23T04:34:36.479Z,99983.75
2023-03-23T04:37:09.438Z,99986.94
2023-03-23T04:39:41.105Z,99998.97
2023-03-23T04:42:12.483Z,99990.88
2023-03-23T04:44:43.540Z,99982.69
2023-03-23T04:47:13.834Z,99990.09
2023-03-23T04:49:44.195Z,99991.22
2023-03-23T04:52:16.667Z,99989.66
2023-03-23T04:54:46.626Z,100005.66
2023-03-23T04:57:16.633Z,100006.44
2023-03-23T04:59:46.748Z,100008.81
2023-03-23T05:02:18.450Z,100009.53
2023-03-23T05:04:50.208Z,100016.63
2023-03-23T05:07:22.648Z,100018.25
2023-03-23T05:09:53.698Z,100012.13
2023-03-23T05:12:23.519Z,100009.09
2023-03-23T05:14:53.491Z,100013.81
2023-03-23T05:17:25.101Z,100022.88
2023-03-23T05:19:57.756Z,100024.47
2023-03-23T05:22:33.446Z,100030.72
2023-03-23T05:25:04.050Z,100022.97
2023-03-23T05:27:34.187Z,100025.63
2023-03-23T05:30:05.428Z,100030.34
2023-03-23T05:32:35.293Z,100033.44
2023-03-23T05:35:05.994Z,100035.81
2023-03-23T05:37:38.455Z,100024.91
2023-03-23T05:40:10.125Z,100025.31
2023-03-23T05:42:42.086Z,100022.59
2023-03-23T05:45:13.687Z,100025.78
2023-03-23T05:47:44.745Z,100030.53
2023-03-23T05:50:17.301Z,100030.53
2023-03-23T05:52:49.983Z,100030.94
2023-03-23T05:55:20.083Z,100026.75
2023-03-23T05:57:50.219Z,100029.84
2023-03-23T06:00:21.164Z,100034.94
2023-03-23T06:02:52.171Z,100040.38
2023-03-23T06:05:22.079Z,100031.41
2023-03-23T06:07:55.020Z,100033.97
2023-03-23T06:10:25.236Z,100039.84
2023-03-23T06:12:55.331Z,100048.41
2023-03-23T06:15:26.086Z,100035.91
2023-03-23T06:17:59.565Z,100051.47
2023-03-23T06:20:29.424Z,100051.03
2023-03-23T06:23:02.934Z,100051.38
2023-03-23T06:25:32.942Z,100049.44
2023-03-23T06:28:03.091Z,100054.47
2023-03-23T06:30:33.075Z,100061.31
2023-03-23T06:33:06.455Z,100050.78
2023-03-23T06:35:36.591Z,100052.00
2023-03-23T06:38:10.109Z,100051.19
2023-03-23T06:40:40.262Z,100058.16
2023-03-23T06:43:13.192Z,100045.38
2023-03-23T06:45:43.359Z,100048.13
2023-03-23T06:48:13.354Z,100054.28
2023-03-23T06:50:45.928Z,100063.34
2023-03-23T06:53:18.413Z,100057.56
2023-03-23T06:55:48.232Z,100057.56
2023-03-23T06:58:18.127Z,100057.63
2023-03-23T07:00:49.022Z,100058.50
2023-03-23T07:03:19.022Z,100062.38
2023-03-23T07:05:51.302Z,100067.13
2023-03-23T07:08:24.163Z,100065.19
2023-03-23T07:10:56.284Z,100077.16
2023-03-23T07:13:26.903Z,100084.88
2023-03-23T07:15:57.063Z,100090.44
2023-03-23T07:18:26.872Z,100092.81
2023-03-23T07:20:58.111Z,100092.81
2023-03-23T07:23:30.522Z,100097.03
2023-03-23T07:26:00.380Z,100093.25
2023-03-23T07:28:30.402Z,100093.69
2023-03-23T07:31:00.254Z,100090.63
2023-03-23T07:33:30.346Z,100090.97
2023-03-23T07:36:03.056Z,100093.34
2023-03-23T07:38:36.202Z,100092.09
2023-03-23T07:41:06.067Z,100092.22
2023-03-23T07:43:36.046Z,100083.66
2023-03-23T07:46:05.855Z,100097.72
2023-03-23T07:48:35.814Z,100104.09
2023-03-23T07:51:06.039Z,100110.41
2023-03-23T07:53:39.964Z,100102.69
2023-03-23T07:56:11.437Z,100111.38
2023-03-23T07:58:41.637Z,100103.63
2023-03-23T08:01:11.614Z,100096.66
2023-03-23T08:03:41.795Z,100090.41
2023-03-23T08:06:12.511Z,100099.81
2023-03-23T08:08:45.479Z,100089.81
2023-03-23T08:11:17.651Z,100086.81
2023-03-23T08:13:47.581Z,100093.13
2023-03-23T08:16:17.559Z,100099.84
2023-03-23T08:18:47.490Z,100103.00
2023-03-23T08:21:17.368Z,100099.47
2023-03-23T08:23:50.569Z,100104.22
2023-03-23T08:26:20.442Z,100092.59
2023-03-23T08:28:50.424Z,100101.25
2023-03-23T08:31:20.721Z,100096.66
2023-03-23T08:33:50.592Z,100102.13
2023-03-23T08:36:20.446Z,100100.97
2023-03-23T08:38:53.924Z,100104.56
2023-03-23T08:41:24.140Z,100114.78
2023-03-23T08:43:54.156Z,100112.47
2023-03-23T08:46:25.186Z,100116.78
2023-03-23T08:48:55.566Z,100114.06
2023-03-23T08:51:26.496Z,100118.38
2023-03-23T08:53:58.985Z,100114.94
2023-03-23T08:56:29.571Z,100117.53
2023-03-23T08:58:59.365Z,100116.38
2023-03-23T09:01:29.270Z,100117.06
2023-03-23T09:03:59.931Z,100131.06
2023-03-23T09:06:30.321Z,100119.38
2023-03-23T09:09:07.707Z,100131.44
2023-03-23T09:11:38.331Z,100131.00
2023-03-23T09:14:10.140Z,100133.38
2023-03-23T09:16:41.341Z,100130.13
2023-03-23T09:19:13.776Z,100129.44
2023-03-23T09:21:43.572Z,100127.47
2023-03-23T09:24:16.362Z,100124.03
2023-03-23T09:26:46.546Z,100140.34
2023-03-23T09:29:17.890Z,100150.53
2023-03-23T09:31:47.753Z,100157.59
2023-03-23T09:34:19.384Z,100170.09
2023-03-23T09:36:50.426Z,100195.81
2023-03-23T09:39:23.498Z,100221.13
2023-03-23T09:42:06.705Z,100223.69
2023-03-23T09:44:47.544Z,100213.88
2023-03-23T09:47:24.096Z,100226.22
2023-03-23T09:49:58.801Z,100218.34
2023-03-23T09:52:41.060Z,100230.41
2023-03-23T09:55:18.544Z,100235.31
2023-03-23T09:57:56.168Z,100230.56
2023-03-23T10:00:30.363Z,100234.59
2023-03-23T10:03:06.689Z,100231.75
2023-03-23T10:05:39.112Z,100229.81
2023-03-23T10:08:16.134Z,100225.66
2023-03-23T10:11:00.376Z,100240.66
2023-03-23T10:13:43.332Z,100258.97
2023-03-23T10:16:17.265Z,100256.31
2023-03-23T10:18:53.902Z,100258.59
2023-03-23T10:21:26.932Z,100260.91
2023-03-23T10:24:02.039Z,100262.13
2023-03-23T10:26:49.723Z,100260.19
2023-03-23T10:29:23.432Z,100263.38
2023-03-23T10:31:58.118Z,100268.84
2023-03-23T10:34:35.079Z,100263.13
2023-03-23T10:37:09.588Z,100265.97
2023-03-23T10:39:47.712Z,100267.63
2023-03-23T10:42:29.443Z,100258.13
2023-03-23T10:45:02.179Z,100265.09
2023-03-23T10:47:32.682Z,100250.69
2023-03-23T10:50:06.980Z,100256.28
2023-03-23T10:52:39.077Z,100253.47
2023-03-23T10:55:13.325Z,100251.78
2023-03-23T10:57:47.493Z,100266.09
2023-03-23T11:00:27.970Z,100261.78
2023-03-23T11:03:05.167Z,100275.41
2023-03-23T11:05:40.845Z,100269.28
2023-03-23T11:08:17.349Z,100272.00
2023-03-23T11:10:55.647Z,100273.81
2023-03-23T11:13:36.274Z,100272.22
2023-03-23T11:16:07.284Z,100271.78
2023-03-23T11:18:40.727Z,100260.69
2023-03-23T11:21:15.180Z,100259.34
2023-03-23T11:23:49.012Z,100261.63
2023-03-23T11:26:22.259Z,100250.50
2023-03-23T11:28:57.804Z,100269.47
2023-03-23T11:31:35.945Z,100259.34
2023-03-23T11:34:08.161Z,100267.28
2023-03-23T11:36:40.733Z,100265.34
2023-03-23T11:39:24.915Z,100261.41
2023-03-23T11:42:08.708Z,100243.91
2023-03-23T11:44:47.349Z,100231.16
2023-03-23T11:47:26.528Z,100245.91
2023-03-23T11:50:02.832Z,100239.97
2023-03-23T11:52:39.873Z,100232.00
2023-03-23T11:55:14.589Z,100230.75
2023-03-23T11:57:45.973Z,100236.59
2023-03-23T12:00:22.278Z,100227.47
2023-03-23T12:03:22.101Z,100237.09
2023-03-23T12:05:59.974Z,100240.56
2023-03-23T12:08:46.686Z,100246.13
2023-03-23T12:11:25.575Z,100241.56
2023-03-23T12:14:14.515Z,100237.16
2023-03-23T12:16:57.574Z,100237.94
2023-03-23T12:19:43.842Z,100246.00
2023-03-23T12:22:27.298Z,100251.56
2023-03-23T12:25:09.911Z,100267.34
2023-03-23T12:27:50.597Z,100259.25
2023-03-23T12:30:32.534Z,100260.03
2023-03-23T12:33:21.662Z,100246.53
2023-03-23T12:36:03.694Z,100236.03
2023-03-23T12:38:53.221Z,100240.75
2023-03-23T12:41:27.559Z,100227.84
2023-03-23T12:44:03.083Z,100241.75
2023-03-23T12:46:57.542Z,100238.69
2023-03-23T12:49:33.967Z,100243.63
2023-03-23T12:52:12.658Z,100238.38
2023-03-23T12:54:52.812Z,100244.00
2023-03-23T12:57:31.888Z,100229.41
2023-03-23T13:00:12.449Z,100232.06
2023-03-23T13:02:48.248Z,100232.28
2023-03-23T13:05:37.416Z,100226.97
2023-03-23T13:08:14.819Z,100228.75
2023-03-23T13:10:49.661Z,100217.28
2023-03-23T13:13:23.055Z,100218.31
2023-03-23T13:16:04.045Z,100204.91
2023-03-23T13:18:43.128Z,100211.03
2023-03-23T13:21:23.680Z,100198.25
2023-03-23T13:23:57.898Z,100186.16
2023-03-23T13:26:28.692Z,100187.91
2023-03-23T13:29:03.090Z,100184.16
2023-03-23T13:31:34.754Z,100188.94
2023-03-23T13:34:08.455Z,100200.56
2023-03-23T13:36:43.855Z,100200.00
2023-03-23T13:39:25.377Z,100204.75
2023-03-23T13:42:06.614Z,100202.03
2023-03-23T13:44:49.462Z,100201.66
2023-03-23T13:47:32.480Z,100206.53
2023-03-23T13:50:04.175Z,100207.78
2023-03-23T13:52:54.612Z,100212.53
2023-03-23T13:55:34.435Z,100232.69
2023-03-23T13:58:15.871Z,100221.38
2023-03-23T14:00:51.668Z,100212.88
2023-03-23T14:03:28.439Z,100218.59
2023-03-23T14:06:08.530Z,100212.97
2023-03-23T14:08:47.076Z,100212.25
2023-03-23T14:11:23.976Z,100203.78
2023-03-23T14:14:05.293Z,100204.69
2023-03-23T14:16:43.401Z,100201.97
2023-03-23T14:19:23.067Z,100211.09
2023-03-23T14:21:58.850Z,100184.97
2023-03-23T14:24:33.262Z,100182.00
2023-03-23T14:27:13.434Z,100187.22
2023-03-23T14:29:43.403Z,100189.47
2023-03-23T14:32:19.514Z,100186.72
2023-03-23T14:34:51.948Z,100185.56
2023-03-23T14:37:22.249Z,100179.97
2023-03-23T14:39:58.293Z,100177.72
2023-03-23T14:42:32.405Z,100181.09
2023-03-23T14:45:05.074Z,100174.03
2023-03-23T14:47:39.757Z,100177.63
2023-03-23T14:50:25.798Z,100180.97
2023-03-23T14:52:56.030Z,100189.88
2023-03-23T14:55:32.263Z,100185.69
2023-03-23T14:58:12.109Z,100185.22
2023-03-23T15:00:46.493Z,100194.78
2023-03-23T15:03:20.058Z,100175.22
2023-03-23T15:05:55.509Z,100165.44
2023-03-23T15:08:31.879Z,100159.13
2023-03-23T15:11:10.116Z,100149.66
2023-03-23T15:13:40.705Z,100144.59
2023-03-23T15:16:17.495Z,100146.56
2023-03-23T15:18:55.259Z,100138.47
2023-03-23T15:21:28.410Z,100129.66
2023-03-23T15:23:59.106Z,100114.75
2023-03-23T15:26:37.456Z,100110.75
2023-03-23T15:29:15.764Z,100104.16
2023-03-23T15:31:58.584Z,100104.59
2023-03-23T15:34:40.221Z,100108.16
2023-03-23T15:37:29.397Z,100118.44
2023-03-23T15:40:01.157Z,100136.06
2023-03-23T15:42:36.597Z,100127.03
2023-03-23T15:45:29.872Z,100121.53
2023-03-23T15:48:08.467Z,100133.78
2023-03-23T15:50:39.539Z,100133.31
2023-03-23T15:53:23.103Z,100136.88
2023-03-23T15:55:53.180Z,100127.13
2023-03-23T15:58:26.005Z,100123.13
2023-03-23T16:00:56.421Z,100112.97
2023-03-23T16:03:30.296Z,100108.16
2023-03-23T16:06:03.610Z,100103.53
2023-03-23T16:08:33.718Z,100097.22
2023-03-23T16:11:03.564Z,100104.16
2023-03-23T16:13:36.023Z,100101.78
2023-03-23T16:16:06.340Z,100112.38
2023-03-23T16:18:36.277Z,100117.06
2023-03-23T16:21:06.381Z,100122.50
2023-03-23T16:23:36.357Z,100135.03
2023-03-23T16:26:06.293Z,100143.25
2023-03-23T16:28:38.848Z,100125.22
2023-03-23T16:31:09.405Z,100112.72
2023-03-23T16:33:39.553Z,100104.50
2023-03-23T16:36:10.673Z,100122.06
2023-03-23T16:38:49.359Z,100121.22
2023-03-23T16:41:20.960Z,100109.41
2023-03-23T16:43:53.520Z,100105.84
2023-03-23T16:46:23.568Z,100114.00
2023-03-23T16:48:53.643Z,100111.63
2023-03-23T16:51:23.549Z,100117.78
2023-03-23T16:53:57.153Z,100123.31
2023-03-23T16:56:27.697Z,100120.13
2023-03-23T16:59:00.474Z,100120.94
2023-03-23T17:01:30.412Z,100125.59
2023-03-23T17:04:00.354Z,100125.59
2023-03-23T17:06:30.600Z,100133.41
2023-03-23T17:09:00.772Z,100132.63
2023-03-23T17:11:30.813Z,100140.44
2023-03-23T17:14:03.453Z,100145.88
2023-03-23T17:16:33.595Z,100142.69
2023-03-23T17:19:03.512Z,100136.03
2023-03-23T17:21:36.417Z,100142.25
2023-03-23T17:24:06.988Z,100140.22
2023-03-23T17:26:37.003Z,100145.28
2023-03-23T17:29:09.536Z,100149.53
2023-03-23T17:31:41.979Z,100154.94
2023-03-23T17:34:11.904Z,100156.50
2023-03-23T17:36:41.839Z,100156.09
2023-03-23T17:39:11.695Z,100151.03
2023-03-23T17:41:41.612Z,100147.88
2023-03-23T17:44:14.109Z,100133.78
2023-03-23T17:46:44.090Z,100129.88
2023-03-23T17:49:14.065Z,100136.94
2023-03-23T17:51:44.597Z,100133.03
2023-03-23T17:54:14.641Z,100139.25
2023-03-23T17:56:44.860Z,100136.84
2023-03-23T17:59:17.340Z,100141.50
2023-03-23T18:01:49.064Z,100133.22
2023-03-23T18:04:19.522Z,100127.75
2023-03-23T18:06:49.543Z,100128.91
2023-03-23T18:09:19.511Z,100115.59
2023-03-23T18:11:49.464Z,100112.34
2023-03-23T18:14:22.968Z,100109.50
2023-03-23T18:16:53.466Z,100112.22
2023-03-23T18:19:24.038Z,100106.75
2023-03-23T18:21:55.901Z,100099.97
2023-03-23T18:24:25.873Z,100098.84
2023-03-23T18:26:57.090Z,100100.72
2023-03-23T18:29:29.611Z,100095.53
2023-03-23T18:31:59.534Z,100099.84
2023-03-23T18:34:31.525Z,100099.41
2023-03-23T18:37:01.380Z,100103.31
2023-03-23T18:39:31.964Z,100091.50
2023-03-23T18:42:02.008Z,100093.03
2023-03-23T18:44:34.666Z,100099.56
2023-03-23T18:47:04.647Z,100097.22
2023-03-23T18:49:34.607Z,100095.56
2023-03-23T18:52:04.535Z,100091.97
2023-03-23T18:54:35.860Z,100088.81
2023-03-23T18:57:05.841Z,100089.09
2023-03-23T18:59:38.452Z,100074.56
2023-03-23T19:02:09.776Z,100076.88
2023-03-23T19:04:39.687Z,100065.53
2023-03-23T19:07:09.755Z,100064.28
2023-03-23T19:09:41.204Z,100058.63
2023-03-23T19:12:12.391Z,100068.81
2023-03-23T19:14:45.103Z,100064.09
2023-03-23T19:17:15.070Z,100064.81
2023-03-23T19:19:45.133Z,100066.25
2023-03-23T19:22:15.673Z,100069.41
2023-03-23T19:24:46.864Z,100071.72
2023-03-23T19:27:16.865Z,100066.94
2023-03-23T19:29:49.559Z,100068.31
2023-03-23T19:32:19.517Z,100061.34
2023-03-23T19:34:51.262Z,100051.16
2023-03-23T19:37:21.400Z,100048.69
2023-03-23T19:39:51.776Z,100036.19
2023-03-23T19:42:21.673Z,100029.06
2023-03-23T19:44:54.308Z,100032.16
2023-03-23T19:47:24.347Z,100021.97
2023-03-23T19:49:56.676Z,100028.56
2023-03-23T19:52:29.289Z,100028.84
2023-03-23T19:54:59.945Z,100028.91
2023-03-23T19:57:30.604Z,100029.28
2023-03-23T20:00:03.717Z,100024.19
2023-03-23T20:02:33.981Z,100020.66
2023-03-23T20:05:08.584Z,100007.72
2023-03-23T20:08:04.735Z,100009.66
2023-03-23T20:10:35.634Z,100004.56
2023-03-23T20:13:06.046Z,100002.97
2023-03-23T20:15:38.912Z,100002.84
2023-03-23T20:18:10.140Z,100002.53
2023-03-23T20:20:40.023Z,99997.41
2023-03-23T20:23:10.607Z,99990.38
2023-03-23T20:25:40.530Z,99986.47
2023-03-23T20:28:10.872Z,99985.69
2023-03-23T20:30:45.835Z,99979.13
2023-03-23T20:33:36.079Z,99976.38
2023-03-23T20:36:09.826Z,99970.94
2023-03-23T20:38:41.960Z,99977.34
2023-03-23T20:41:13.557Z,99971.53
2023-03-23T20:43:46.114Z,99959.44
2023-03-23T20:46:18.589Z,99963.75
2023-03-23T20:48:49.666Z,99958.72
2023-03-23T20:51:21.796Z,99963.47
2023-03-23T20:53:52.468Z,99962.75
2023-03-23T20:56:22.962Z,99961.25
2023-03-23T20:58:53.931Z,99954.28
2023-03-23T21:01:29.489Z,99949.47
2023-03-23T21:04:01.075Z,99951.53
2023-03-23T21:06:34.469Z,99953.41
2023-03-23T21:09:04.542Z,99959.72
2023-03-23T21:11:35.481Z,99966.78
2023-03-23T21:14:06.149Z,99966.06
2023-03-23T21:16:44.430Z,99966.06
2023-03-23T21:19:15.123Z,99963.34
2023-03-23T21:21:55.796Z,99968.44
2023-03-23T21:24:29.218Z,99958.56
2023-03-23T21:27:00.863Z,99942.47
2023-03-23T21:29:31.029Z,99947.94
2023-03-23T21:32:08.607Z,99945.22
2023-03-23T21:34:39.695Z,99947.09
2023-03-23T21:37:09.843Z,99943.34
2023-03-23T21:39:39.786Z,99944.66
2023-03-23T21:42:09.653Z,99939.13
2023-03-23T21:44:40.376Z,99943.81
2023-03-23T21:47:13.137Z,99940.19
2023-03-23T21:49:46.251Z,99940.44
2023-03-23T21:52:16.120Z,99941.53
2023-03-23T21:54:46.103Z,99933.25
2023-03-23T21:57:16.122Z,99941.03
2023-03-23T21:59:45.974Z,99935.56
2023-03-23T22:02:19.089Z,99925.34
2023-03-23T22:04:49.066Z,99933.13
2023-03-23T22:07:20.201Z,99929.53
2023-03-23T22:09:50.103Z,99925.22
2023-03-23T22:12:20.252Z,99925.94
2023-03-23T22:14:50.267Z,99924.34
2023-03-23T22:17:22.800Z,99915.75
2023-03-23T22:19:53.163Z,99921.22
2023-03-23T22:22:23.142Z,99916.44
2023-03-23T22:24:53.333Z,99919.97
2023-03-23T22:27:23.386Z,99914.44
2023-03-23T22:29:53.594Z,99910.84
2023-03-23T22:32:28.781Z,99906.13
2023-03-23T22:34:58.771Z,99910.06
2023-03-23T22:37:29.224Z,99911.19
2023-03-23T22:39:59.178Z,99903.72
2023-03-23T22:42:29.290Z,99897.06
2023-03-23T22:44:59.331Z,99889.59
2023-03-23T22:47:31.882Z,99882.56
2023-03-23T22:50:02.074Z,99878.38
2023-03-23T22:52:33.178Z,99873.06
2023-03-23T22:55:03.445Z,99876.13
2023-03-23T22:57:33.686Z,99867.97
2023-03-23T23:00:05.565Z,99866.31
2023-03-23T23:02:38.196Z,99868.16
2023-03-23T23:05:08.677Z,99858.00
2023-03-23T23:07:39.165Z,99854.47
2023-03-23T23:10:10.940Z,99845.56
2023-03-23T23:12:42.685Z,99844.72
2023-03-23T23:15:16.138Z,99848.94
2023-03-23T23:17:48.934Z,99832.16
2023-03-23T23:20:19.277Z,99828.28
2023-03-23T23:22:49.227Z,99835.38
2023-03-23T23:25:19.417Z,99816.72
2023-03-23T23:27:49.368Z,99819.53
2023-03-23T23:30:19.490Z,99812.50
2023-03-23T23:32:52.493Z,99814.38
2023-03-23T23:35:23.593Z,99797.22
2023-03-23T23:37:53.878Z,99802.72
2023-03-23T23:40:23.995Z,99796.59
2023-03-23T23:42:55.108Z,99805.19
2023-03-23T23:45:26.640Z,99801.16
2023-03-23T23:47:59.431Z,99803.59
2023-03-23T23:50:30.297Z,99791.56
2023-03-23T23:53:00.578Z,99791.28
2023-03-23T23:55:31.602Z,99792.84
2023-03-23T23:58:01.608Z,99782.22
